Kaufman, Texas
Current Conditions -  °F | °C
As of 6:53 PM on Saturday 20 Dec 2014 (Local Time) from KTRL Reporting Station
Overcast Overcast  
Wind Chill: 47°   Ceiling: 3200
Heat Index: 49°   Visibility: 9mi
Dew Point: 45°   Wind: 5mph
Humidity: 86%   Direction: 30°NNE
Pressure: 30.19"   Gusts: NA
Location:  32.59°N, 96.31°W
Report Text: KTRL 210053Z AUTO 03004KT 9SM OVC032 09/07 A3019 RMK AO2 SLP224 T00940072
Loading
Personal Weather Stations






























Interactive Weather Map New forecast layout! Learn more

10-Day Weather Forecast

Advertisements
Track Severe Weather on mobile